Time;durP1;ratioP1;P1;durP2;ratioP2;P2;SDS_P1;SDS_P2;PMS_P1;PMS_P2;Temp;Humidity;BMP_temperature;BMP_pressure;BME280_temperature;BME280_humidity;BME280_pressure;Samples;Min_cycle;Max_cycle;Signal;HPM_P1;HPM_P2
2021/06/10 00:02:21;;;;;;;6.13;4.57;;;16.30;99.90;;;;;;5134704;27;20407;-76
2021/06/10 00:04:47;;;;;;;5.00;4.60;;;16.20;99.90;;;;;;5130503;27;20043;-75
2021/06/10 00:07:14;;;;;;;4.75;4.35;;;16.10;99.90;;;;;;5127784;27;20039;-75
2021/06/10 00:09:41;;;;;;;4.90;4.50;;;16.10;99.90;;;;;;5123849;27;20069;-76
2021/06/10 00:12:10;;;;;;;5.13;4.63;;;16.10;99.90;;;;;;5114069;28;20487;-75
2021/06/10 00:14:36;;;;;;;5.25;4.72;;;16.20;99.90;;;;;;5123530;27;20096;-75
2021/06/10 00:17:02;;;;;;;5.95;4.85;;;16.30;99.90;;;;;;5122767;27;20051;-75
2021/06/10 00:19:29;;;;;;;9.60;6.10;;;16.30;99.90;;;;;;5121544;27;20596;-76
2021/06/10 00:21:55;;;;;;;4.95;4.53;;;16.40;99.90;;;;;;5129809;27;20072;-75
2021/06/10 00:24:21;;;;;;;5.00;4.63;;;16.40;99.90;;;;;;5120911;27;20043;-75
2021/06/10 00:26:47;;;;;;;5.15;4.68;;;16.40;99.90;;;;;;5133802;27;20051;-75
2021/06/10 00:29:15;;;;;;;5.88;4.82;;;16.20;99.90;;;;;;5132347;27;20150;-75
2021/06/10 00:31:41;;;;;;;6.18;5.57;;;16.00;99.90;;;;;;5129288;27;20486;-75
2021/06/10 00:34:07;;;;;;;5.30;4.80;;;15.90;99.90;;;;;;5121025;27;20042;-76
2021/06/10 00:36:34;;;;;;;5.18;4.68;;;15.80;99.90;;;;;;5133356;27;20069;-75
2021/06/10 00:39:00;;;;;;;4.68;4.25;;;15.70;99.90;;;;;;5128915;27;20384;-76
2021/06/10 00:41:31;;;;;;;5.18;4.70;;;15.70;99.90;;;;;;5113516;28;20051;-76
2021/06/10 00:43:57;;;;;;;4.85;4.45;;;15.80;99.90;;;;;;5113962;28;20044;-76
2021/06/10 00:46:25;;;;;;;6.13;5.47;;;15.80;99.90;;;;;;5113283;28;20043;-76
2021/06/10 00:48:51;;;;;;;6.20;5.60;;;15.60;99.90;;;;;;5112947;28;20360;-76
2021/06/10 00:51:17;;;;;;;5.75;5.03;;;15.60;99.90;;;;;;5113043;28;20043;-75
2021/06/10 00:53:43;;;;;;;5.43;4.97;;;15.60;99.90;;;;;;5113296;28;20046;-75
2021/06/10 00:56:11;;;;;;;5.20;4.30;;;15.50;99.90;;;;;;5112791;27;20043;-75
2021/06/10 00:58:38;;;;;;;4.88;4.47;;;15.50;99.90;;;;;;5124114;27;20043;-75
2021/06/10 01:01:05;;;;;;;5.93;4.80;;;15.60;99.90;;;;;;5133747;27;20107;-75
2021/06/10 01:03:32;;;;;;;6.65;4.55;;;15.60;99.90;;;;;;5133543;27;20126;-75
2021/06/10 01:06:01;;;;;;;5.47;5.05;;;15.60;99.90;;;;;;5133398;27;20380;-75
2021/06/10 01:08:35;;;;;;;5.45;4.75;;;15.70;99.90;;;;;;5113986;28;20059;-75
2021/06/10 01:11:09;;;;;;;5.30;4.90;;;15.50;99.90;;;;;;5112579;28;20050;-75
2021/06/10 01:13:46;;;;;;;5.82;4.97;;;15.40;99.90;;;;;;5125457;27;20047;-75
2021/06/10 01:16:16;;;;;;;7.25;4.95;;;15.20;99.90;;;;;;5132840;27;20043;-76
2021/06/10 01:18:44;;;;;;;6.35;5.40;;;14.90;99.90;;;;;;5133020;27;20043;-75
2021/06/10 01:21:10;;;;;;;5.43;4.53;;;14.90;99.90;;;;;;5113465;28;20050;-75
2021/06/10 01:23:52;;;;;;;5.93;5.35;;;14.90;99.90;;;;;;5112774;28;20047;-75
2021/06/10 01:26:26;;;;;;;5.63;5.10;;;14.90;99.90;;;;;;5120485;27;20046;-74
2021/06/10 01:28:55;;;;;;;7.25;6.03;;;15.00;99.90;;;;;;5117930;27;20448;-75
2021/06/10 01:31:21;;;;;;;6.47;5.82;;;14.80;99.90;;;;;;5113852;27;20044;-74
2021/06/10 01:33:50;;;;;;;5.35;4.80;;;14.90;99.90;;;;;;5122233;28;20044;-76
2021/06/10 01:36:20;;;;;;;6.03;5.43;;;14.90;99.90;;;;;;5132018;28;20043;-75
2021/06/10 01:38:48;;;;;;;6.30;5.50;;;14.80;99.90;;;;;;5129728;28;20050;-74
2021/06/10 01:41:16;;;;;;;6.15;5.55;;;14.70;99.90;;;;;;5112349;28;20043;-75
2021/06/10 01:43:44;;;;;;;5.15;4.65;;;14.70;99.90;;;;;;5113510;28;20048;-75
2021/06/10 01:46:13;;;;;;;5.72;5.05;;;14.70;99.90;;;;;;5130655;28;20107;-75
2021/06/10 01:48:41;;;;;;;5.65;5.05;;;14.60;99.90;;;;;;5112333;28;20054;-75
2021/06/10 01:51:08;;;;;;;9.45;6.72;;;14.50;99.90;;;;;;5112420;28;20040;-75
2021/06/10 01:53:37;;;;;;;8.25;5.60;;;14.40;99.90;;;;;;5112174;28;20044;-75
2021/06/10 01:56:04;;;;;;;6.60;6.00;;;14.30;99.90;;;;;;5131329;28;20081;-75
2021/06/10 01:58:31;;;;;;;6.65;6.05;;;14.20;99.90;;;;;;5131818;28;20406;-75
2021/06/10 02:01:00;;;;;;;7.43;5.72;;;14.20;99.90;;;;;;5126276;28;20036;-75
2021/06/10 02:03:28;;;;;;;9.25;5.28;;;14.20;99.90;;;;;;5112365;28;20043;-75
2021/06/10 02:05:55;;;;;;;6.43;5.28;;;14.20;99.90;;;;;;5112052;28;20534;-75
2021/06/10 02:08:22;;;;;;;7.05;6.35;;;14.20;99.90;;;;;;5111736;28;20218;-75
2021/06/10 02:10:51;;;;;;;12.98;5.78;;;14.20;99.90;;;;;;5113671;28;20122;-75
2021/06/10 02:13:18;;;;;;;7.18;5.50;;;14.30;99.90;;;;;;5132804;28;20043;-75
2021/06/10 02:15:45;;;;;;;6.50;5.97;;;14.30;99.90;;;;;;5113162;28;20054;-76
2021/06/10 02:18:12;;;;;;;9.57;6.32;;;14.40;99.90;;;;;;5112263;28;20040;-75
2021/06/10 02:20:40;;;;;;;7.45;6.65;;;14.50;99.90;;;;;;5112124;28;20044;-75
2021/06/10 02:23:06;;;;;;;6.97;6.28;;;14.70;99.90;;;;;;5123263;27;20092;-74
2021/06/10 02:25:33;;;;;;;6.15;5.63;;;14.80;99.90;;;;;;5135884;27;20039;-75
2021/06/10 02:28:00;;;;;;;6.45;5.43;;;14.90;99.90;;;;;;5135696;27;20059;-74
2021/06/10 02:30:26;;;;;;;6.63;5.97;;;15.00;99.90;;;;;;5131230;27;20577;-76
2021/06/10 02:32:53;;;;;;;7.50;5.45;;;15.00;99.90;;;;;;5122600;27;20043;-76
2021/06/10 02:35:19;;;;;;;6.03;5.22;;;15.00;99.90;;;;;;5121449;27;20491;-75
2021/06/10 02:37:49;;;;;;;7.13;5.85;;;15.00;99.90;;;;;;5115757;27;20089;-75
2021/06/10 02:40:18;;;;;;;6.05;5.53;;;15.20;99.90;;;;;;5116880;27;20487;-75
2021/06/10 02:42:45;;;;;;;7.05;6.35;;;15.10;99.90;;;;;;5115848;28;20129;-75
2021/06/10 02:45:12;;;;;;;6.28;5.65;;;15.00;99.90;;;;;;5133016;27;20093;-75
2021/06/10 02:47:41;;;;;;;11.18;6.07;;;15.00;99.90;;;;;;5135579;27;20674;-75
2021/06/10 02:50:11;;;;;;;6.13;5.07;;;14.80;99.90;;;;;;5121996;27;20052;-74
2021/06/10 02:52:42;;;;;;;7.95;6.32;;;14.70;99.90;;;;;;5134827;27;20047;-75
2021/06/10 02:55:12;;;;;;;6.95;5.97;;;14.50;99.90;;;;;;5135832;27;20047;-74
2021/06/10 02:57:40;;;;;;;6.03;5.43;;;14.40;99.90;;;;;;5135489;27;20043;-74
2021/06/10 03:00:08;;;;;;;8.93;7.15;;;14.20;99.90;;;;;;5134909;27;20535;-74
2021/06/10 03:02:35;;;;;;;7.60;6.20;;;14.30;99.90;;;;;;5135469;27;20745;-74
2021/06/10 03:05:02;;;;;;;7.22;6.53;;;14.30;99.90;;;;;;5131004;27;20046;-75
2021/06/10 03:07:28;;;;;;;6.90;6.22;;;14.20;99.90;;;;;;5116228;27;20101;-75
2021/06/10 03:09:54;;;;;;;7.55;6.85;;;14.20;99.90;;;;;;5127041;27;20047;-75
2021/06/10 03:12:22;;;;;;;10.20;6.97;;;14.30;99.90;;;;;;5124332;27;20050;-74
2021/06/10 03:14:53;;;;;;;7.32;6.63;;;14.30;99.90;;;;;;5122009;27;20512;-75
2021/06/10 03:17:20;;;;;;;6.50;5.90;;;14.30;99.90;;;;;;5135367;27;20051;-74
2021/06/10 03:19:54;;;;;;;6.13;5.53;;;14.50;99.90;;;;;;5125686;27;20403;-75
2021/06/10 03:22:20;;;;;;;8.25;6.50;;;14.70;99.90;;;;;;5122320;27;20391;-75
2021/06/10 03:24:48;;;;;;;7.75;6.93;;;14.80;99.90;;;;;;5125362;27;20400;-75
2021/06/10 03:27:14;;;;;;;6.80;6.20;;;14.90;99.90;;;;;;5117465;27;20352;-75
2021/06/10 03:29:42;;;;;;;7.40;6.50;;;15.00;99.90;;;;;;5119963;27;20050;-75
2021/06/10 03:32:09;;;;;;;6.70;6.10;;;15.10;99.90;;;;;;5135808;27;20088;-75
2021/06/10 03:34:36;;;;;;;7.35;6.45;;;15.20;99.90;;;;;;5130665;27;20407;-67
2021/06/10 03:37:03;;;;;;;7.10;6.30;;;15.10;99.90;;;;;;5128203;27;20047;-66
2021/06/10 03:39:31;;;;;;;7.07;6.38;;;15.20;99.90;;;;;;5132930;27;20051;-68
2021/06/10 03:41:59;;;;;;;7.10;6.43;;;15.40;99.90;;;;;;5133198;27;20039;-66
2021/06/10 03:44:27;;;;;;;7.53;6.72;;;15.40;99.90;;;;;;5134213;27;20130;-68
2021/06/10 03:46:56;;;;;;;7.28;6.15;;;15.60;99.90;;;;;;5133488;27;20039;-67
2021/06/10 03:49:22;;;;;;;7.47;6.70;;;15.80;99.90;;;;;;5113996;28;20050;-67
2021/06/10 03:51:49;;;;;;;5.88;5.40;;;16.00;99.90;;;;;;5113885;28;20048;-68
2021/06/10 03:54:16;;;;;;;6.13;5.60;;;16.10;99.90;;;;;;5131720;27;20147;-69
2021/06/10 03:56:42;;;;;;;6.95;6.35;;;16.20;99.90;;;;;;5133851;27;20043;-67
2021/06/10 03:59:08;;;;;;;9.63;6.78;;;16.20;99.90;;;;;;5134993;27;20043;-68
2021/06/10 04:01:34;;;;;;;8.40;6.38;;;16.40;99.90;;;;;;5135043;27;20076;-68
2021/06/10 04:04:01;;;;;;;6.38;5.72;;;16.50;99.90;;;;;;5135128;27;20111;-67
2021/06/10 04:06:31;;;;;;;8.27;7.03;;;16.50;99.90;;;;;;5134239;27;20054;-68
2021/06/10 04:08:58;;;;;;;8.07;7.18;;;16.60;99.90;;;;;;5133179;27;20126;-69
2021/06/10 04:11:25;;;;;;;6.97;6.35;;;16.70;99.90;;;;;;5134829;27;20039;-69
2021/06/10 04:13:51;;;;;;;7.95;7.20;;;16.90;99.90;;;;;;5133999;27;20054;-69
2021/06/10 04:16:18;;;;;;;7.50;6.65;;;16.90;99.90;;;;;;5133754;27;20049;-71
2021/06/10 04:18:44;;;;;;;7.15;6.40;;;17.00;99.90;;;;;;5134283;27;20043;-67
2021/06/10 04:21:12;;;;;;;7.00;6.47;;;17.30;99.90;;;;;;5134233;27;20039;-66
2021/06/10 04:23:38;;;;;;;7.93;7.13;;;17.40;99.90;;;;;;5134263;27;20043;-68
2021/06/10 04:26:04;;;;;;;12.25;9.95;;;17.50;99.90;;;;;;5134253;27;20458;-67
2021/06/10 04:28:30;;;;;;;7.85;7.15;;;17.50;99.90;;;;;;5133806;27;20055;-68
2021/06/10 04:30:57;;;;;;;8.73;7.82;;;17.50;99.90;;;;;;5134117;27;20071;-76
2021/06/10 04:33:24;;;;;;;8.40;7.60;;;17.40;99.90;;;;;;5134875;27;20043;-76
2021/06/10 04:35:50;;;;;;;11.02;9.93;;;17.50;99.90;;;;;;5134093;27;20047;-73
2021/06/10 04:38:17;;;;;;;13.63;10.82;;;17.60;99.90;;;;;;5133782;27;20058;-77
2021/06/10 04:40:44;;;;;;;12.35;10.55;;;17.70;99.90;;;;;;5124570;27;20054;-75
2021/06/10 04:43:10;;;;;;;12.35;9.68;;;17.90;99.90;;;;;;5113549;28;20078;-74
2021/06/10 04:45:37;;;;;;;12.00;8.05;;;18.00;99.90;;;;;;5119224;28;20051;-81
2021/06/10 04:48:04;;;;;;;8.10;7.40;;;18.10;99.90;;;;;;5122333;27;20058;-80
2021/06/10 04:50:38;;;;;;;8.32;7.53;;;18.20;99.90;;;;;;5121725;27;20647;-75
2021/06/10 04:53:05;;;;;;;7.57;6.78;;;18.30;99.90;;;;;;5134062;27;20043;-73
2021/06/10 04:55:32;;;;;;;8.48;7.57;;;18.40;99.90;;;;;;5134214;27;20689;-76
2021/06/10 04:58:02;;;;;;;11.50;10.23;;;18.40;99.90;;;;;;5131314;27;20042;-77
2021/06/10 05:00:29;;;;;;;11.73;8.63;;;18.30;99.90;;;;;;5128803;27;20039;-75
2021/06/10 05:02:55;;;;;;;14.02;10.57;;;18.30;99.90;;;;;;5133780;27;20035;-72
2021/06/10 05:05:39;;;;;;;12.80;8.40;;;18.30;99.90;;;;;;5119528;27;20052;-77
2021/06/10 05:08:05;;;;;;;10.88;9.80;;;18.60;99.90;;;;;;5133551;27;20051;-74
2021/06/10 05:10:32;;;;;;;11.23;8.98;;;18.60;99.90;;;;;;5133345;27;20039;-74
2021/06/10 05:12:59;;;;;;;9.25;8.40;;;18.70;99.90;;;;;;5133295;27;20499;-75
2021/06/10 05:15:25;;;;;;;9.23;7.82;;;18.80;99.90;;;;;;5129174;27;20051;-72
2021/06/10 05:17:51;;;;;;;9.60;7.85;;;18.90;99.90;;;;;;5133892;27;20055;-70
2021/06/10 05:20:17;;;;;;;9.00;7.47;;;19.20;99.90;;;;;;5134243;27;20047;-72
2021/06/10 05:22:43;;;;;;;17.92;10.57;;;19.10;99.90;;;;;;5134132;27;20043;-73
2021/06/10 05:25:10;;;;;;;8.77;7.97;;;19.10;99.90;;;;;;5133089;27;20095;-74
2021/06/10 05:27:37;;;;;;;25.65;18.95;;;19.20;99.90;;;;;;5132667;27;20047;-74
2021/06/10 05:30:04;;;;;;;19.20;14.23;;;19.30;99.90;;;;;;5133009;27;20043;-74
2021/06/10 05:32:30;;;;;;;7.82;7.18;;;19.40;99.90;;;;;;5133125;27;20411;-74
2021/06/10 05:34:57;;;;;;;15.13;11.95;;;19.60;99.90;;;;;;5133245;27;20480;-72
2021/06/10 05:37:23;;;;;;;8.48;7.65;;;19.60;99.90;;;;;;5133097;28;20079;-75
2021/06/10 05:39:49;;;;;;;10.07;9.10;;;19.70;99.90;;;;;;5135965;27;20046;-73
2021/06/10 05:42:16;;;;;;;12.60;10.82;;;19.70;99.90;;;;;;5133517;28;20051;-73
2021/06/10 05:44:44;;;;;;;14.05;11.68;;;20.00;99.90;;;;;;5132222;28;20043;-73
2021/06/10 05:47:10;;;;;;;15.80;11.13;;;20.10;99.90;;;;;;5115907;28;20489;-73
2021/06/10 05:49:36;;;;;;;7.57;6.85;;;20.10;99.90;;;;;;5128474;28;20456;-73
2021/06/10 05:52:03;;;;;;;12.48;10.32;;;20.20;99.90;;;;;;5120579;28;20050;-73
2021/06/10 05:54:31;;;;;;;8.68;7.03;;;20.40;99.90;;;;;;5112225;28;20469;-73
2021/06/10 05:56:58;;;;;;;7.38;6.60;;;20.40;99.90;;;;;;5114867;27;20050;-75
2021/06/10 05:59:24;;;;;;;7.78;7.07;;;20.60;99.90;;;;;;5137171;27;20050;-74
2021/06/10 06:01:52;;;;;;;8.50;7.05;;;20.90;99.90;;;;;;5137223;27;20086;-77
2021/06/10 06:04:19;;;;;;;9.15;8.15;;;21.20;99.90;;;;;;5136770;27;20043;-79
2021/06/10 06:06:45;;;;;;;9.40;7.68;;;21.60;99.90;;;;;;5137900;27;20039;-72
2021/06/10 06:09:11;;;;;;;8.88;7.00;;;22.10;99.90;;;;;;5138000;27;20096;-75
2021/06/10 06:11:37;;;;;;;13.82;9.63;;;22.50;99.90;;;;;;5136988;27;20047;-74
2021/06/10 06:14:07;;;;;;;7.18;6.47;;;22.80;99.90;;;;;;5138041;27;20039;-74
2021/06/10 06:16:36;;;;;;;7.40;6.67;;;22.90;98.30;;;;;;5135451;27;20079;-77
2021/06/10 06:19:04;;;;;;;5.15;4.65;;;22.70;97.80;;;;;;5137071;27;20054;-79
2021/06/10 06:21:33;;;;;;;5.95;5.30;;;22.20;97.10;;;;;;5136705;27;20055;-75
2021/06/10 06:23:59;;;;;;;7.18;6.50;;;22.60;97.70;;;;;;5119864;27;20039;-77
2021/06/10 06:26:25;;;;;;;14.52;11.38;;;22.70;97.40;;;;;;5115692;28;20096;-76
2021/06/10 06:28:53;;;;;;;16.15;12.40;;;22.90;96.80;;;;;;5117284;28;20152;-75
2021/06/10 06:31:20;;;;;;;7.93;6.78;;;23.40;96.10;;;;;;5116234;28;20077;-76
2021/06/10 06:33:47;;;;;;;7.18;5.00;;;23.60;94.30;;;;;;5121686;27;20525;-75
2021/06/10 06:36:14;;;;;;;23.60;14.98;;;23.90;94.00;;;;;;5136332;27;20184;-73
2021/06/10 06:38:40;;;;;;;9.35;8.35;;;24.60;92.20;;;;;;5126366;27;20093;-75
2021/06/10 06:41:06;;;;;;;18.60;14.20;;;24.90;90.10;;;;;;5115597;28;20043;-71
2021/06/10 06:43:33;;;;;;;6.95;6.28;;;25.20;85.80;;;;;;5126282;27;20047;-71
2021/06/10 06:45:59;;;;;;;12.68;9.02;;;25.50;83.00;;;;;;5136175;27;20043;-71
2021/06/10 06:48:28;;;;;;;10.80;7.32;;;25.40;81.80;;;;;;5135927;27;20043;-71
2021/06/10 06:50:54;;;;;;;13.23;10.75;;;25.30;83.40;;;;;;5135499;27;20414;-73
2021/06/10 06:53:21;;;;;;;10.25;7.60;;;25.40;82.20;;;;;;5136022;27;20047;-73
2021/06/10 06:55:47;;;;;;;7.07;6.15;;;25.70;81.30;;;;;;5119806;27;20143;-74
2021/06/10 06:58:14;;;;;;;9.65;8.65;;;26.10;80.00;;;;;;5129131;27;20104;-72
2021/06/10 07:00:40;;;;;;;7.55;6.80;;;26.30;78.20;;;;;;5115545;28;20100;-73
2021/06/10 07:03:06;;;;;;;9.40;7.50;;;26.10;76.50;;;;;;5129815;27;20051;-71
2021/06/10 07:05:33;;;;;;;14.52;11.90;;;25.60;78.10;;;;;;5132555;27;20100;-73
2021/06/10 07:07:59;;;;;;;20.05;14.00;;;25.80;79.40;;;;;;5119590;27;20099;-73
2021/06/10 07:10:26;;;;;;;6.82;6.18;;;26.60;79.30;;;;;;5135097;27;20486;-76
2021/06/10 07:12:52;;;;;;;14.02;10.93;;;27.10;75.10;;;;;;5116635;27;20096;-73
2021/06/10 07:15:18;;;;;;;6.88;6.25;;;27.60;72.80;;;;;;5131203;27;20046;-72
2021/06/10 07:17:44;;;;;;;5.82;5.25;;;28.00;73.00;;;;;;5130870;27;20117;-73
2021/06/10 07:20:13;;;;;;;6.05;5.55;;;28.10;71.00;;;;;;5126073;27;20047;-74
2021/06/10 07:22:39;;;;;;;4.10;3.80;;;28.50;68.90;;;;;;5135732;27;20058;-76
2021/06/10 07:25:07;;;;;;;4.32;3.90;;;29.10;66.10;;;;;;5136332;27;20058;-77
2021/06/10 07:27:35;;;;;;;5.15;4.72;;;29.60;62.70;;;;;;5134940;27;20536;-70
2021/06/10 07:30:01;;;;;;;6.32;5.68;;;29.60;61.30;;;;;;5135198;27;20475;-71
2021/06/10 07:35:13;;;;;;;6.68;6.00;;;30.00;60.90;;;;;;5139208;27;20071;-76
2021/06/10 07:37:39;;;;;;;4.90;4.47;;;30.10;59.60;;;;;;5134575;27;20100;-72
2021/06/10 07:40:06;;;;;;;5.60;5.20;;;29.30;60.60;;;;;;5135355;27;20171;-72
2021/06/10 07:42:34;;;;;;;7.40;6.40;;;29.70;60.40;;;;;;5135464;27;20043;-72
2021/06/10 07:45:00;;;;;;;4.88;4.47;;;29.30;59.30;;;;;;5135307;27;20494;-72
2021/06/10 07:47:26;;;;;;;6.72;4.43;;;29.70;60.00;;;;;;5134740;27;20047;-72
2021/06/10 07:49:52;;;;;;;6.25;5.45;;;30.60;58.40;;;;;;5135417;27;20043;-72
2021/06/10 07:52:18;;;;;;;4.63;4.15;;;30.90;57.40;;;;;;5136132;27;20040;-72
2021/06/10 07:54:44;;;;;;;5.03;4.05;;;31.60;56.90;;;;;;5135547;27;20070;-73
2021/06/10 07:57:11;;;;;;;5.53;5.15;;;31.40;55.70;;;;;;5136955;27;20529;-71
2021/06/10 07:59:38;;;;;;;8.32;7.55;;;31.00;56.30;;;;;;5134792;27;20409;-72
2021/06/10 08:02:04;;;;;;;6.03;5.53;;;30.80;56.30;;;;;;5135814;27;20051;-71
2021/06/10 08:04:32;;;;;;;7.57;5.72;;;31.50;57.30;;;;;;5138200;27;20043;-71
2021/06/10 08:06:58;;;;;;;5.13;4.20;;;31.70;56.00;;;;;;5134570;27;20107;-72
2021/06/10 08:09:24;;;;;;;4.88;4.47;;;32.20;53.20;;;;;;5135344;27;20044;-72
2021/06/10 08:11:50;;;;;;;4.53;4.22;;;32.80;52.20;;;;;;5134897;27;20043;-71
2021/06/10 08:14:16;;;;;;;6.25;5.45;;;32.70;50.80;;;;;;5134863;27;20116;-72
2021/06/10 08:16:44;;;;;;;3.90;3.60;;;32.50;51.70;;;;;;5134262;27;20444;-71
2021/06/10 08:19:10;;;;;;;5.32;4.82;;;32.70;51.90;;;;;;5126164;27;20047;-71
2021/06/10 08:21:36;;;;;;;7.38;6.20;;;32.40;51.70;;;;;;5114116;27;20054;-71
2021/06/10 08:24:02;;;;;;;5.47;4.60;;;32.40;51.00;;;;;;5133888;27;20047;-72
2021/06/10 08:26:29;;;;;;;3.67;3.38;;;32.60;49.20;;;;;;5134258;27;20039;-72
2021/06/10 08:28:55;;;;;;;4.47;4.18;;;32.90;49.70;;;;;;5134399;27;20043;-72
2021/06/10 08:31:21;;;;;;;5.32;4.80;;;32.50;50.10;;;;;;5134283;27;20039;-72
2021/06/10 08:33:49;;;;;;;5.72;5.22;;;32.70;49.70;;;;;;5134546;27;20047;-72
2021/06/10 08:36:19;;;;;;;5.80;5.30;;;33.00;49.90;;;;;;5134158;27;20685;-72
2021/06/10 08:38:45;;;;;;;6.60;5.40;;;33.00;48.90;;;;;;5134141;27;20373;-73
2021/06/10 08:41:12;;;;;;;4.65;4.35;;;33.40;49.50;;;;;;5134007;27;20108;-73
2021/06/10 08:43:38;;;;;;;6.35;5.75;;;33.60;48.70;;;;;;5134458;27;20384;-73
2021/06/10 08:46:07;;;;;;;4.43;4.13;;;33.60;48.80;;;;;;5134166;27;20051;-72
2021/06/10 08:48:35;;;;;;;4.25;3.92;;;33.20;48.60;;;;;;5134396;27;20049;-72
2021/06/10 08:51:04;;;;;;;7.45;5.22;;;33.50;50.00;;;;;;5134205;27;20100;-72
2021/06/10 08:53:30;;;;;;;6.82;5.88;;;33.50;49.50;;;;;;5133912;27;20051;-72
2021/06/10 08:55:57;;;;;;;6.35;5.60;;;33.80;48.40;;;;;;5133917;27;20054;-72
2021/06/10 08:58:23;;;;;;;5.50;4.90;;;33.40;49.90;;;;;;5134171;27;20047;-72
2021/06/10 09:00:50;;;;;;;5.80;5.30;;;33.90;48.70;;;;;;5133846;27;20266;-71
2021/06/10 09:03:22;;;;;;;4.30;3.92;;;33.70;47.90;;;;;;5134312;27;20043;-73
2021/06/10 09:06:06;;;;;;;7.18;6.10;;;33.80;48.60;;;;;;5133800;27;20078;-72
2021/06/10 09:08:32;;;;;;;4.68;4.38;;;34.00;47.80;;;;;;5131956;27;20043;-72
2021/06/10 09:11:06;;;;;;;4.95;4.55;;;34.50;46.70;;;;;;5133419;27;20407;-71
2021/06/10 09:13:38;;;;;;;6.07;5.35;;;34.20;46.40;;;;;;5134020;27;20047;-72
2021/06/10 09:16:18;;;;;;;5.28;4.70;;;34.40;46.30;;;;;;5133509;27;20092;-72
2021/06/10 09:18:49;;;;;;;5.10;4.70;;;34.20;47.00;;;;;;5133599;27;20054;-72
2021/06/10 09:21:26;;;;;;;5.20;4.80;;;34.00;46.10;;;;;;5133524;27;20083;-73
2021/06/10 09:23:52;;;;;;;5.45;4.93;;;34.40;45.90;;;;;;5133984;27;20043;-73
2021/06/10 09:26:18;;;;;;;6.03;5.53;;;34.90;45.20;;;;;;5133199;27;20070;-71
2021/06/10 09:28:46;;;;;;;5.75;5.28;;;34.60;44.70;;;;;;5133661;27;20099;-72
2021/06/10 09:31:12;;;;;;;6.15;5.55;;;34.80;45.70;;;;;;5133292;27;20483;-71
2021/06/10 09:33:40;;;;;;;5.40;5.00;;;35.20;44.60;;;;;;5133699;27;20047;-72
2021/06/10 09:36:07;;;;;;;6.63;6.13;;;35.60;44.30;;;;;;5132899;27;20065;-73
2021/06/10 09:38:34;;;;;;;5.82;5.32;;;36.20;44.20;;;;;;5133485;28;20047;-72
2021/06/10 09:41:05;;;;;;;5.35;4.85;;;36.60;43.00;;;;;;5132853;28;20532;-72
2021/06/10 09:43:45;;;;;;;5.70;5.20;;;35.90;44.30;;;;;;5133220;28;20115;-72
2021/06/10 09:46:11;;;;;;;5.60;5.10;;;35.60;44.90;;;;;;5133062;27;20095;-72
2021/06/10 09:48:37;;;;;;;5.57;5.10;;;34.80;45.20;;;;;;5133147;28;20043;-72
2021/06/10 09:51:03;;;;;;;4.80;4.40;;;34.70;43.80;;;;;;5133365;28;20414;-72
2021/06/10 09:53:32;;;;;;;8.10;6.03;;;34.60;44.60;;;;;;5133668;27;20546;-72
2021/06/10 09:56:05;;;;;;;6.57;5.85;;;33.90;45.70;;;;;;5132942;28;20383;-73
2021/06/10 09:58:35;;;;;;;6.35;4.65;;;33.60;45.00;;;;;;5133518;28;20367;-72
2021/06/10 10:01:04;;;;;;;5.78;5.25;;;32.30;46.80;;;;;;5132928;28;20054;-72
2021/06/10 10:03:42;;;;;;;5.95;5.35;;;31.10;47.80;;;;;;5133334;28;20039;-73
2021/06/10 10:06:16;;;;;;;5.05;4.45;;;31.80;48.60;;;;;;5133073;28;20391;-72
2021/06/10 10:08:45;;;;;;;5.30;4.80;;;32.80;46.50;;;;;;5132778;28;20558;-72
2021/06/10 10:11:14;;;;;;;4.70;4.03;;;32.80;45.20;;;;;;5133052;28;20049;-72
2021/06/10 10:13:41;;;;;;;5.22;4.72;;;32.80;45.70;;;;;;5133395;28;20054;-73
2021/06/10 10:16:07;;;;;;;6.07;4.82;;;33.60;45.20;;;;;;5133328;28;20047;-72
2021/06/10 10:18:34;;;;;;;3.67;3.38;;;34.30;44.40;;;;;;5133277;28;20047;-72
2021/06/10 10:21:01;;;;;;;4.03;3.72;;;34.20;44.00;;;;;;5133314;28;20050;-72
2021/06/10 10:23:29;;;;;;;5.53;5.03;;;34.60;43.80;;;;;;5133010;28;20107;-71
2021/06/10 10:25:58;;;;;;;4.00;3.70;;;35.20;41.30;;;;;;5133013;27;20044;-72
2021/06/10 10:28:27;;;;;;;3.97;3.70;;;35.20;42.50;;;;;;5132880;28;20155;-72
2021/06/10 10:30:54;;;;;;;4.63;4.25;;;35.40;42.40;;;;;;5133228;28;20048;-72
2021/06/10 10:33:22;;;;;;;4.28;3.97;;;35.10;42.30;;;;;;5132928;28;20498;-72
2021/06/10 10:35:50;;;;;;;3.90;3.60;;;35.40;41.90;;;;;;5132883;27;20440;-72
2021/06/10 10:38:21;;;;;;;3.92;3.63;;;35.60;41.80;;;;;;5132683;28;20055;-72
2021/06/10 10:40:56;;;;;;;4.97;4.57;;;35.80;41.00;;;;;;5132803;27;20050;-72
2021/06/10 10:43:24;;;;;;;4.20;3.80;;;35.80;41.10;;;;;;5133889;27;20051;-72
2021/06/10 10:46:09;;;;;;;4.40;3.75;;;35.80;40.00;;;;;;5136742;27;20116;-71
2021/06/10 10:48:36;;;;;;;4.68;4.38;;;35.70;40.00;;;;;;5136667;27;20043;-72
2021/06/10 10:51:22;;;;;;;4.25;3.83;;;36.00;39.10;;;;;;5136212;27;20410;-72
2021/06/10 10:53:54;;;;;;;3.83;3.42;;;35.90;39.90;;;;;;5136788;27;20047;-71
2021/06/10 10:56:33;;;;;;;4.82;4.15;;;36.00;39.60;;;;;;5136352;27;20047;-72
2021/06/10 10:59:15;;;;;;;4.00;3.63;;;35.50;41.10;;;;;;5136021;27;20070;-72
2021/06/10 11:02:01;;;;;;;4.00;3.70;;;36.20;38.90;;;;;;5136392;27;20175;-72
2021/06/10 11:04:46;;;;;;;6.70;5.38;;;36.20;38.80;;;;;;5136472;27;20040;-72
2021/06/10 11:07:46;;;;;;;3.58;3.05;;;36.80;38.40;;;;;;5135897;27;20050;-71
2021/06/10 11:10:15;;;;;;;6.28;4.47;;;36.40;38.10;;;;;;5136133;27;20051;-71
2021/06/10 11:12:51;;;;;;;3.47;3.20;;;36.20;38.00;;;;;;5136143;27;20074;-71
2021/06/10 11:15:49;;;;;;;2.88;2.63;;;36.30;37.40;;;;;;5136017;27;20044;-72
2021/06/10 11:18:39;;;;;;;3.53;3.33;;;36.90;35.80;;;;;;5137100;27;20425;-73
2021/06/10 11:21:05;;;;;;;;;;;37.10;35.00;;;;;;5136487;27;20077;-72
2021/06/10 11:23:31;;;;;;;3.90;3.63;;;37.00;35.40;;;;;;5135676;27;20332;-73
2021/06/10 11:25:59;;;;;;;7.28;5.90;;;37.10;36.80;;;;;;5135712;27;20498;-71
2021/06/10 11:28:27;;;;;;;3.95;3.65;;;37.10;35.40;;;;;;5135774;27;20054;-71
2021/06/10 11:31:12;;;;;;;4.50;3.38;;;37.30;36.50;;;;;;5135471;27;20072;-72
2021/06/10 11:33:40;;;;;;;5.25;4.78;;;36.80;35.90;;;;;;5135797;27;20048;-73
2021/06/10 11:36:07;;;;;;;3.25;3.00;;;36.70;35.60;;;;;;5135661;27;20043;-72
2021/06/10 11:38:38;;;;;;;2.92;2.72;;;37.30;35.20;;;;;;5135536;27;20051;-72
2021/06/10 11:41:06;;;;;;;2.50;2.30;;;37.30;34.70;;;;;;5135475;27;20085;-72
2021/06/10 11:43:33;;;;;;;3.55;3.25;;;37.30;34.30;;;;;;5135668;27;20505;-72
2021/06/10 11:46:02;;;;;;;3.05;2.85;;;37.30;34.30;;;;;;5135757;27;20040;-72
2021/06/10 11:48:36;;;;;;;4.10;3.80;;;36.60;33.90;;;;;;5135537;27;20050;-71
2021/06/10 11:51:04;;;;;;;4.05;2.80;;;36.80;33.80;;;;;;5135786;27;20047;-71
2021/06/10 11:53:31;;;;;;;7.35;6.60;;;37.40;33.40;;;;;;5136865;27;20054;-72
2021/06/10 11:55:58;;;;;;;3.20;3.00;;;37.70;33.90;;;;;;5134995;27;20051;-72
2021/06/10 11:58:27;;;;;;;4.05;3.75;;;38.00;33.30;;;;;;5134885;27;20418;-72
2021/06/10 12:00:54;;;;;;;4.70;4.28;;;38.10;33.30;;;;;;5134994;27;20486;-72
2021/06/10 12:03:21;;;;;;;3.60;3.30;;;37.90;33.70;;;;;;5135106;27;20051;-72
2021/06/10 12:05:50;;;;;;;3.97;3.67;;;37.70;33.10;;;;;;5134692;27;20402;-72
2021/06/10 12:08:19;;;;;;;3.22;2.92;;;37.70;33.50;;;;;;5134916;27;20050;-71
2021/06/10 12:10:52;;;;;;;5.70;5.07;;;37.00;33.10;;;;;;5134821;27;20047;-72
2021/06/10 12:13:28;;;;;;;3.05;2.85;;;37.80;32.90;;;;;;5135255;27;20044;-72
2021/06/10 12:15:55;;;;;;;3.20;2.97;;;38.00;33.10;;;;;;5134409;27;20047;-71
2021/06/10 12:18:21;;;;;;;3.20;3.00;;;37.50;32.80;;;;;;5134235;27;20069;-71
2021/06/10 12:20:50;;;;;;;4.50;3.25;;;37.60;33.80;;;;;;5134714;27;20039;-71
2021/06/10 12:23:19;;;;;;;5.13;4.63;;;37.70;33.40;;;;;;5134965;27;20092;-73
2021/06/10 12:25:52;;;;;;;5.88;5.35;;;37.60;33.60;;;;;;5134462;27;20070;-71
2021/06/10 12:28:44;;;;;;;4.40;4.00;;;38.00;33.00;;;;;;5134390;27;20043;-72
2021/06/10 12:31:14;;;;;;;2.90;2.70;;;38.20;32.60;;;;;;5134623;27;20086;-72
2021/06/10 12:33:41;;;;;;;;;;;38.00;33.10;;;;;;5135574;27;20043;-72
2021/06/10 12:36:15;;;;;;;4.45;3.60;;;37.80;33.60;;;;;;5134053;27;20286;-71
2021/06/10 12:38:43;;;;;;;5.40;4.72;;;37.20;34.30;;;;;;5134483;27;20100;-71
2021/06/10 12:41:15;;;;;;;6.18;4.15;;;37.70;33.70;;;;;;5134381;27;20043;-72
2021/06/10 12:43:42;;;;;;;7.75;5.75;;;37.90;33.40;;;;;;5134545;27;20039;-72
2021/06/10 12:46:09;;;;;;;4.43;3.80;;;37.40;33.70;;;;;;5134031;27;20054;-71
2021/06/10 12:48:35;;;;;;;3.67;3.38;;;37.00;34.80;;;;;;5134126;27;20047;-72
2021/06/10 12:51:22;;;;;;;6.30;3.88;;;36.10;35.40;;;;;;5134379;27;20112;-72
2021/06/10 12:54:17;;;;;;;4.60;3.75;;;36.70;36.00;;;;;;5134868;27;20054;-72
2021/06/10 12:56:50;;;;;;;4.18;3.78;;;36.90;35.00;;;;;;5097699;27;20043;-72